createdAt,value
2022-08-05T00:01:36.204Z,64.51
2022-08-05T00:04:17.618Z,62.97
2022-08-05T00:06:47.255Z,63.21
2022-08-05T00:09:19.365Z,64.60
2022-08-05T00:11:49.115Z,63.78
2022-08-05T00:14:27.490Z,64.30
2022-08-05T00:16:57.687Z,64.34
2022-08-05T00:19:33.135Z,64.76
2022-08-05T00:22:02.563Z,65.09
2022-08-05T00:24:30.735Z,65.07
2022-08-05T00:27:00.107Z,64.02
2022-08-05T00:29:38.199Z,64.25
2022-08-05T00:32:12.301Z,64.25
2022-08-05T00:35:06.037Z,64.76
2022-08-05T00:37:51.414Z,64.87
2022-08-05T00:40:27.003Z,64.34
2022-08-05T00:42:58.549Z,65.63
2022-08-05T00:45:39.114Z,65.19
2022-08-05T00:48:16.684Z,65.46
2022-08-05T00:50:46.689Z,65.78
2022-08-05T00:53:59.895Z,65.70
2022-08-05T00:56:05.596Z,64.41
2022-08-05T00:58:36.917Z,65.25
2022-08-05T01:01:08.654Z,65.39
2022-08-05T01:03:38.651Z,65.23
2022-08-05T01:06:14.240Z,63.45
2022-08-05T01:08:44.497Z,65.12
2022-08-05T01:11:14.487Z,65.57
2022-08-05T01:14:01.300Z,64.00
2022-08-05T01:16:48.427Z,64.77
2022-08-05T01:21:12.935Z,64.85
2022-08-05T01:24:02.774Z,63.96
2022-08-05T01:27:01.367Z,64.80
2022-08-05T01:29:49.706Z,65.02
2022-08-05T01:32:22.896Z,64.98
2022-08-05T01:34:57.921Z,64.46
2022-08-05T01:37:37.543Z,65.03
2022-08-05T01:40:13.073Z,64.64
2022-08-05T01:42:42.881Z,65.55
2022-08-05T01:45:11.042Z,66.26
2022-08-05T01:47:43.171Z,66.43
2022-08-05T01:50:15.231Z,66.26
2022-08-05T01:52:49.909Z,65.52
2022-08-05T01:55:21.704Z,65.54
2022-08-05T01:58:10.466Z,65.13
2022-08-05T02:00:43.822Z,64.28
2022-08-05T02:03:29.146Z,64.65
2022-08-05T02:06:03.757Z,65.85
2022-08-05T02:08:57.792Z,65.29
2022-08-05T02:11:33.067Z,65.42
2022-08-05T02:14:18.002Z,66.61
2022-08-05T02:16:53.273Z,65.67
2022-08-05T02:19:46.960Z,66.77
2022-08-05T02:22:25.764Z,65.42
2022-08-05T02:25:08.459Z,65.84
2022-08-05T02:27:57.919Z,65.29
2022-08-05T02:30:31.343Z,66.25
2022-08-05T02:33:03.049Z,66.76
2022-08-05T02:35:37.722Z,67.02
2022-08-05T02:38:13.376Z,67.54
2022-08-05T02:40:47.659Z,65.83
2022-08-05T02:43:16.875Z,65.56
2022-08-05T02:45:52.644Z,66.55
2022-08-05T02:48:28.825Z,66.32
2022-08-05T02:51:01.391Z,66.29
2022-08-05T02:53:39.406Z,66.03
2022-08-05T02:56:11.201Z,65.62
2022-08-05T02:58:44.534Z,66.19
2022-08-05T03:01:21.118Z,66.81
2022-08-05T03:04:12.874Z,67.21
2022-08-05T03:06:56.816Z,67.35
2022-08-05T03:09:37.561Z,67.03
2022-08-05T03:12:29.646Z,67.45
2022-08-05T03:14:57.662Z,67.63
2022-08-05T03:17:26.275Z,66.97
2022-08-05T03:19:54.778Z,66.67
2022-08-05T03:22:32.282Z,65.20
2022-08-05T03:25:11.649Z,65.90
2022-08-05T03:28:00.098Z,65.97
2022-08-05T03:30:33.548Z,66.12
2022-08-05T03:33:04.176Z,66.44
2022-08-05T03:35:40.784Z,66.86
2022-08-05T03:38:14.395Z,67.47
2022-08-05T03:40:47.474Z,67.42
2022-08-05T03:43:59.274Z,66.76
2022-08-05T03:46:05.414Z,66.47
2022-08-05T03:48:36.921Z,67.02
2022-08-05T03:52:48.929Z,67.24
2022-08-05T03:55:54.082Z,66.72
2022-08-05T03:57:00.144Z,66.93
2022-08-05T04:00:01.238Z,67.37
2022-08-05T04:02:37.349Z,66.37
2022-08-05T04:05:09.652Z,66.91
2022-08-05T04:07:57.301Z,66.81
2022-08-05T04:10:30.928Z,66.59
2022-08-05T04:13:00.482Z,66.52
2022-08-05T04:15:33.302Z,66.57
2022-08-05T04:18:06.755Z,66.52
2022-08-05T04:20:34.828Z,66.46
2022-08-05T04:23:02.500Z,66.25
2022-08-05T04:25:56.428Z,66.07
2022-08-05T04:28:28.467Z,65.67
2022-08-05T04:31:01.162Z,65.55
2022-08-05T04:33:54.614Z,65.68
2022-08-05T04:36:44.995Z,65.69
2022-08-05T04:39:05.350Z,65.67
2022-08-05T04:41:37.757Z,65.67
2022-08-05T04:44:09.572Z,65.45
2022-08-05T04:46:40.688Z,65.38
2022-08-05T04:49:15.015Z,65.17
2022-08-05T04:51:44.177Z,65.07
2022-08-05T04:54:12.387Z,65.12
2022-08-05T04:56:40.209Z,65.29
2022-08-05T04:59:24.115Z,65.15
2022-08-05T05:02:07.590Z,65.30
2022-08-05T05:04:48.065Z,65.31
2022-08-05T05:07:18.416Z,65.42
2022-08-05T05:09:52.112Z,65.07
2022-08-05T05:12:22.218Z,65.01
2022-08-05T05:14:51.352Z,65.11
2022-08-05T05:17:23.939Z,64.66
2022-08-05T05:19:56.416Z,64.40
2022-08-05T05:22:26.482Z,64.15
2022-08-05T05:24:57.572Z,64.17
2022-08-05T05:27:41.253Z,63.83
2022-08-05T05:30:28.706Z,63.55
2022-08-05T05:33:03.872Z,63.29
2022-08-05T05:35:48.080Z,63.15
2022-08-05T05:38:22.657Z,62.83
2022-08-05T05:40:58.011Z,62.56
2022-08-05T05:43:56.616Z,62.05
2022-08-05T05:46:15.798Z,61.55
2022-08-05T05:48:44.662Z,61.25
2022-08-05T05:51:24.514Z,60.60
2022-08-05T05:53:57.554Z,60.32
2022-08-05T05:56:33.800Z,61.14
2022-08-05T05:59:05.809Z,61.95
2022-08-05T06:01:38.165Z,62.47
2022-08-05T06:04:14.334Z,61.66
2022-08-05T06:06:47.500Z,60.79
2022-08-05T06:09:25.773Z,60.08
2022-08-05T06:12:01.423Z,59.31
2022-08-05T06:14:31.323Z,59.21
2022-08-05T06:16:59.710Z,60.49
2022-08-05T06:19:34.882Z,61.15
2022-08-05T06:22:04.622Z,61.54
2022-08-05T06:24:35.307Z,62.16
2022-08-05T06:27:04.048Z,61.93
2022-08-05T06:29:48.955Z,60.29
2022-08-05T06:32:24.803Z,59.19
2022-08-05T06:34:58.593Z,58.96
2022-08-05T06:37:58.112Z,59.44
2022-08-05T06:40:21.249Z,59.75
2022-08-05T06:42:52.635Z,59.81
2022-08-05T06:45:44.944Z,60.45
2022-08-05T06:48:36.809Z,61.00
2022-08-05T06:50:57.239Z,61.01
2022-08-05T06:53:28.552Z,61.00
2022-08-05T06:56:00.611Z,60.21
2022-08-05T06:58:34.819Z,59.52
2022-08-05T07:01:06.470Z,59.47
2022-08-05T07:03:34.805Z,59.53
2022-08-05T07:06:06.186Z,59.71
2022-08-05T07:08:47.958Z,59.46
2022-08-05T07:11:22.603Z,58.46
2022-08-05T07:14:19.954Z,57.78
2022-08-05T07:17:59.333Z,58.06
2022-08-05T07:20:31.481Z,58.20
2022-08-05T07:22:39.173Z,57.96
2022-08-05T07:25:23.554Z,58.05
2022-08-05T07:28:00.793Z,57.70
2022-08-05T07:30:38.693Z,57.30
2022-08-05T07:33:15.534Z,57.22
2022-08-05T07:36:04.970Z,56.89
2022-08-05T07:38:35.001Z,56.61
2022-08-05T07:42:12.826Z,55.99
2022-08-05T07:44:14.410Z,55.67
2022-08-05T07:46:49.761Z,55.82
2022-08-05T07:49:19.563Z,55.81
2022-08-05T07:51:53.503Z,54.61
2022-08-05T07:54:31.287Z,53.92
2022-08-05T07:57:18.130Z,53.74
2022-08-05T07:59:50.697Z,53.69
2022-08-05T08:02:26.587Z,53.70
2022-08-05T08:04:58.996Z,53.86
2022-08-05T08:07:28.487Z,53.34
2022-08-05T08:09:56.748Z,52.09
2022-08-05T08:12:37.284Z,52.21
2022-08-05T08:15:15.269Z,52.65
2022-08-05T08:17:49.672Z,52.65
2022-08-05T08:20:45.404Z,52.53
2022-08-05T08:23:59.809Z,52.69
2022-08-05T08:25:59.008Z,52.48
2022-08-05T08:28:36.942Z,52.74
2022-08-05T08:31:18.535Z,52.82
2022-08-05T08:33:51.596Z,52.11
2022-08-05T08:36:39.262Z,51.88
2022-08-05T08:39:15.019Z,51.89
2022-08-05T08:41:51.915Z,51.37
2022-08-05T08:45:21.422Z,50.87
2022-08-05T08:48:05.917Z,50.36
2022-08-05T08:50:51.967Z,50.16
2022-08-05T08:53:07.874Z,50.36
2022-08-05T08:56:05.279Z,49.86
2022-08-05T08:58:26.156Z,49.14
2022-08-05T09:01:08.628Z,48.46
2022-08-05T09:03:55.564Z,48.90
2022-08-05T09:06:29.993Z,49.11
2022-08-05T09:09:00.575Z,48.97
2022-08-05T09:11:52.921Z,45.56
2022-08-05T09:14:56.728Z,41.73
2022-08-05T09:17:09.320Z,37.87
2022-08-05T09:20:01.462Z,36.76
2022-08-05T09:22:32.035Z,36.37
2022-08-05T09:25:01.838Z,36.77
2022-08-05T09:28:05.292Z,35.27
2022-08-05T09:30:29.526Z,28.04
2022-08-05T09:33:02.289Z,27.10
2022-08-05T09:35:30.116Z,28.56
2022-08-05T09:38:12.481Z,25.18
2022-08-05T09:40:52.175Z,21.94
2022-08-05T09:43:40.232Z,21.62
2022-08-05T09:46:27.547Z,20.76
2022-08-05T09:49:07.225Z,18.67
2022-08-05T09:51:39.906Z,19.53
2022-08-05T09:54:09.331Z,19.14
2022-08-05T09:56:40.784Z,17.92
2022-08-05T09:59:24.234Z,18.02
2022-08-05T10:01:55.614Z,17.47
2022-08-05T10:04:36.048Z,16.29
2022-08-05T10:07:20.976Z,16.70
2022-08-05T10:10:14.339Z,16.14
2022-08-05T10:12:51.958Z,16.11
2022-08-05T10:15:35.243Z,16.02
2022-08-05T10:18:17.596Z,15.88
2022-08-05T10:20:47.818Z,15.86
2022-08-05T10:23:56.113Z,16.47
2022-08-05T10:26:17.206Z,15.64
2022-08-05T10:28:46.785Z,15.79
2022-08-05T10:32:52.877Z,16.03
2022-08-05T10:34:08.001Z,16.51
2022-08-05T10:36:37.862Z,16.62
2022-08-05T10:39:10.418Z,15.65
2022-08-05T10:42:04.061Z,15.56
2022-08-05T10:44:32.543Z,15.91
2022-08-05T10:47:25.889Z,16.11
2022-08-05T10:50:36.189Z,16.76
2022-08-05T10:53:05.013Z,15.87
2022-08-05T10:56:03.856Z,15.65
2022-08-05T10:58:21.043Z,16.13
2022-08-05T11:00:55.406Z,16.33
2022-08-05T11:03:30.576Z,16.57
2022-08-05T11:06:08.533Z,16.35
2022-08-05T11:09:13.237Z,16.32
2022-08-05T11:11:52.335Z,16.27
2022-08-05T11:14:57.894Z,16.13
2022-08-05T11:17:57.639Z,17.04
2022-08-05T11:20:44.237Z,17.73
2022-08-05T11:24:04.503Z,18.87
2022-08-05T11:26:38.804Z,20.16
2022-08-05T11:29:13.220Z,21.21
2022-08-05T11:31:56.766Z,22.64
2022-08-05T11:34:50.808Z,23.21
2022-08-05T11:38:29.839Z,24.64
2022-08-05T11:41:57.850Z,25.32
2022-08-05T11:44:10.759Z,26.70
2022-08-05T11:46:58.396Z,27.33
2022-08-05T11:49:34.336Z,28.88
2022-08-05T11:52:11.528Z,29.29
2022-08-05T11:54:41.825Z,29.90
2022-08-05T11:57:24.807Z,29.76
2022-08-05T11:59:54.192Z,30.27
2022-08-05T12:02:31.976Z,30.90
2022-08-05T12:05:06.954Z,32.59
2022-08-05T12:08:08.029Z,31.90
2022-08-05T12:10:43.402Z,32.37
2022-08-05T12:13:18.941Z,34.21
2022-08-05T12:16:14.999Z,33.62
2022-08-05T12:18:49.622Z,34.13
2022-08-05T12:21:23.730Z,34.78
2022-08-05T12:24:00.124Z,34.23
2022-08-05T12:26:44.335Z,34.30
2022-08-05T12:29:16.186Z,34.81
2022-08-05T12:32:07.626Z,34.97
2022-08-05T12:34:38.519Z,35.24
2022-08-05T12:37:21.536Z,36.57
2022-08-05T12:39:51.859Z,36.89
2022-08-05T12:42:25.418Z,36.10
2022-08-05T12:45:09.469Z,36.10
2022-08-05T12:47:38.238Z,36.09
2022-08-05T12:50:16.144Z,36.34
2022-08-05T12:52:55.505Z,37.22
2022-08-05T12:55:28.311Z,37.01
2022-08-05T12:58:49.151Z,37.17
2022-08-05T13:02:00.103Z,37.47
2022-08-05T13:03:38.879Z,36.90
2022-08-05T13:06:08.006Z,37.25
2022-08-05T13:08:40.066Z,38.04
2022-08-05T13:11:07.985Z,37.23
2022-08-05T13:14:05.601Z,37.33
2022-08-05T13:16:27.844Z,37.48
2022-08-05T13:18:59.672Z,37.55
2022-08-05T13:21:38.084Z,37.95
2022-08-05T13:24:36.617Z,38.71
2022-08-05T13:27:04.877Z,38.74
2022-08-05T13:29:39.074Z,38.72
2022-08-05T13:32:33.064Z,38.73
2022-08-05T13:35:04.137Z,38.79
2022-08-05T13:37:34.904Z,38.81
2022-08-05T13:40:16.336Z,38.87
2022-08-05T13:42:48.053Z,39.54
2022-08-05T13:45:23.335Z,39.39
2022-08-05T13:48:08.919Z,39.55
2022-08-05T13:50:37.674Z,39.90
2022-08-05T13:53:09.040Z,39.80
2022-08-05T13:55:49.226Z,39.49
2022-08-05T13:58:30.802Z,39.52
2022-08-05T14:00:59.666Z,39.60
2022-08-05T14:03:28.387Z,39.52
2022-08-05T14:06:25.148Z,39.02
2022-08-05T14:08:44.703Z,38.96
2022-08-05T14:11:21.120Z,39.21
2022-08-05T14:13:51.403Z,39.61
2022-08-05T14:16:23.173Z,39.28
2022-08-05T14:18:51.245Z,39.31
2022-08-05T14:22:07.791Z,38.78
2022-08-05T14:24:10.945Z,38.76
2022-08-05T14:26:51.460Z,38.67
2022-08-05T14:29:26.779Z,38.82
2022-08-05T14:32:12.447Z,38.74
2022-08-05T14:34:42.522Z,38.37
2022-08-05T14:37:13.315Z,38.52
2022-08-05T14:39:56.889Z,38.38
2022-08-05T14:42:25.062Z,38.32
2022-08-05T14:44:54.505Z,38.10
2022-08-05T14:48:03.882Z,38.18
2022-08-05T14:50:18.503Z,38.62
2022-08-05T14:52:53.630Z,38.72
2022-08-05T14:55:38.451Z,38.88
2022-08-05T14:58:12.196Z,39.09
2022-08-05T15:00:59.071Z,38.75
2022-08-05T15:03:33.887Z,38.77
2022-08-05T15:06:14.781Z,38.85
2022-08-05T15:08:59.688Z,39.14
2022-08-05T15:11:51.809Z,39.50
2022-08-05T15:14:34.491Z,39.51
2022-08-05T15:17:05.426Z,39.53
2022-08-05T15:19:49.025Z,39.98
2022-08-05T15:22:17.316Z,39.61
2022-08-05T15:24:45.709Z,39.59
2022-08-05T15:27:13.468Z,40.08
2022-08-05T15:29:42.307Z,39.47
2022-08-05T15:32:10.603Z,39.35
2022-08-05T15:34:38.291Z,39.47
2022-08-05T15:37:06.939Z,39.65
2022-08-05T15:40:59.659Z,39.67
2022-08-05T15:42:55.310Z,39.45
2022-08-05T15:45:27.112Z,39.40
2022-08-05T15:48:06.931Z,39.67
2022-08-05T15:50:34.713Z,40.19
2022-08-05T15:53:05.581Z,40.34
2022-08-05T15:56:02.593Z,40.03
2022-08-05T15:58:23.294Z,40.02
2022-08-05T16:01:11.855Z,40.36
2022-08-05T16:03:40.975Z,40.20
2022-08-05T16:06:11.335Z,40.53
2022-08-05T16:08:39.957Z,40.89
2022-08-05T16:11:10.310Z,41.13
2022-08-05T16:13:38.112Z,41.09
2022-08-05T16:16:06.286Z,41.66
2022-08-05T16:18:34.204Z,41.77
2022-08-05T16:21:04.635Z,41.64
2022-08-05T16:23:54.019Z,41.53
2022-08-05T16:26:26.454Z,41.44
2022-08-05T16:28:56.047Z,41.63
2022-08-05T16:31:23.941Z,41.75
2022-08-05T16:33:54.535Z,41.80
2022-08-05T16:36:23.849Z,41.67
2022-08-05T16:38:55.517Z,42.24
2022-08-05T16:42:14.339Z,41.87
2022-08-05T16:44:16.778Z,42.06
2022-08-05T16:46:56.123Z,42.28
2022-08-05T16:49:24.195Z,42.37
2022-08-05T16:51:54.840Z,43.03
2022-08-05T16:54:30.349Z,42.86
2022-08-05T16:57:00.834Z,43.18
2022-08-05T16:59:30.639Z,43.17
2022-08-05T17:01:59.511Z,43.51
2022-08-05T17:04:28.776Z,43.88
2022-08-05T17:07:01.258Z,43.74
2022-08-05T17:09:57.890Z,44.02
2022-08-05T17:12:17.790Z,43.80
2022-08-05T17:14:50.480Z,44.45
2022-08-05T17:17:19.711Z,45.36
2022-08-05T17:19:55.485Z,45.11
2022-08-05T17:22:25.567Z,45.01
2022-08-05T17:24:57.942Z,45.93
2022-08-05T17:27:33.558Z,47.76
2022-08-05T17:30:12.095Z,49.78
2022-08-05T17:32:47.955Z,49.48
2022-08-05T17:35:15.819Z,49.47
2022-08-05T17:37:50.461Z,48.86
2022-08-05T17:40:22.285Z,50.75
2022-08-05T17:42:53.108Z,51.65
2022-08-05T17:45:22.888Z,53.32
2022-08-05T17:47:54.841Z,54.39
2022-08-05T17:50:30.457Z,54.76
2022-08-05T17:53:01.118Z,55.10
2022-08-05T17:55:34.666Z,56.16
2022-08-05T17:58:09.691Z,56.68
2022-08-05T18:00:44.465Z,57.57
2022-08-05T18:03:33.445Z,58.03
2022-08-05T18:06:11.288Z,57.76
2022-08-05T18:08:44.974Z,58.97
2022-08-05T18:11:24.200Z,59.73
2022-08-05T18:14:03.590Z,61.07
2022-08-05T18:16:33.446Z,61.47
2022-08-05T18:19:01.792Z,60.73
2022-08-05T18:22:07.592Z,59.79
2022-08-05T18:24:17.259Z,57.45
2022-08-05T18:26:45.401Z,58.40
2022-08-05T18:29:16.710Z,59.64
2022-08-05T18:31:44.867Z,60.22
2022-08-05T18:34:12.883Z,58.34
2022-08-05T18:36:43.531Z,58.65
2022-08-05T18:39:42.055Z,59.92
2022-08-05T18:42:06.051Z,60.35
2022-08-05T18:44:55.382Z,60.25
2022-08-05T18:47:26.439Z,58.54
2022-08-05T18:50:15.736Z,57.72
2022-08-05T18:52:50.922Z,57.55
2022-08-05T18:55:21.595Z,58.65
2022-08-05T18:57:53.875Z,59.56
2022-08-05T19:00:28.692Z,59.58
2022-08-05T19:03:03.766Z,60.04
2022-08-05T19:06:11.479Z,58.85
2022-08-05T19:08:30.786Z,58.38
2022-08-05T19:11:02.739Z,59.06
2022-08-05T19:13:35.998Z,59.83
2022-08-05T19:16:24.939Z,60.27
2022-08-05T19:18:56.852Z,59.01
2022-08-05T19:21:27.542Z,60.56
2022-08-05T19:24:05.376Z,59.33
2022-08-05T19:26:54.409Z,60.47
2022-08-05T19:29:26.729Z,60.26
2022-08-05T19:32:05.584Z,59.32
2022-08-05T19:34:36.514Z,62.14
2022-08-05T19:37:04.336Z,63.64
2022-08-05T19:39:32.477Z,63.81
2022-08-05T19:42:34.888Z,63.49
2022-08-05T19:45:01.564Z,63.17
2022-08-05T19:47:29.308Z,62.25
2022-08-05T19:50:00.859Z,62.08
2022-08-05T19:52:31.716Z,61.01
2022-08-05T19:55:07.298Z,59.38
2022-08-05T19:58:10.409Z,59.97
2022-08-05T20:00:37.315Z,60.30
2022-08-05T20:03:09.251Z,61.72
2022-08-05T20:05:49.893Z,62.51
2022-08-05T20:08:20.114Z,63.14
2022-08-05T20:10:49.628Z,63.03
2022-08-05T20:13:18.263Z,62.28
2022-08-05T20:15:58.287Z,60.98
2022-08-05T20:18:33.622Z,59.94
2022-08-05T20:21:06.578Z,60.28
2022-08-05T20:23:40.480Z,62.13
2022-08-05T20:26:19.880Z,62.35
2022-08-05T20:28:51.397Z,62.21
2022-08-05T20:31:28.785Z,61.32
2022-08-05T20:34:10.687Z,61.11
2022-08-05T20:36:39.018Z,61.51
2022-08-05T20:39:16.143Z,62.19
2022-08-05T20:41:46.811Z,62.68
2022-08-05T20:44:30.136Z,63.44
2022-08-05T20:47:00.828Z,62.73
2022-08-05T20:49:28.504Z,62.13
2022-08-05T20:51:57.342Z,61.17
2022-08-05T20:54:42.930Z,62.61
2022-08-05T20:57:24.532Z,62.60
2022-08-05T21:00:19.607Z,60.93
2022-08-05T21:02:56.087Z,63.48
2022-08-05T21:05:24.997Z,64.01
2022-08-05T21:07:52.855Z,63.33
2022-08-05T21:10:21.571Z,62.46
2022-08-05T21:13:08.280Z,61.29
2022-08-05T21:15:37.424Z,61.50
2022-08-05T21:18:05.204Z,63.64
2022-08-05T21:20:34.334Z,63.77
2022-08-05T21:23:03.051Z,63.76
2022-08-05T21:25:33.829Z,64.14
2022-08-05T21:28:03.318Z,64.61
2022-08-05T21:30:31.661Z,63.23
2022-08-05T21:32:59.989Z,62.43
2022-08-05T21:35:55.559Z,62.31
2022-08-05T21:38:19.201Z,63.49
2022-08-05T21:40:47.005Z,63.50
2022-08-05T21:43:23.867Z,64.17
2022-08-05T21:45:57.374Z,63.19
2022-08-05T21:48:28.883Z,63.58
2022-08-05T21:50:57.324Z,63.55
2022-08-05T21:53:27.650Z,63.72
2022-08-05T21:56:05.882Z,63.56
2022-08-05T21:58:42.093Z,62.28
2022-08-05T22:01:10.661Z,62.70
2022-08-05T22:03:49.016Z,63.43
2022-08-05T22:06:35.274Z,63.21
2022-08-05T22:09:14.651Z,62.69
2022-08-05T22:11:46.978Z,62.01
2022-08-05T22:14:32.785Z,62.10
2022-08-05T22:17:05.349Z,61.66
2022-08-05T22:20:02.075Z,62.29
2022-08-05T22:22:27.117Z,61.40
2022-08-05T22:25:27.704Z,60.51
2022-08-05T22:28:08.219Z,60.97
2022-08-05T22:30:55.893Z,60.87
2022-08-05T22:33:56.996Z,61.43
2022-08-05T22:36:15.174Z,61.10
2022-08-05T22:38:48.095Z,61.16
2022-08-05T22:42:05.411Z,60.56
2022-08-05T22:44:08.595Z,60.98
2022-08-05T22:46:39.808Z,61.29
2022-08-05T22:49:12.494Z,61.48
2022-08-05T22:52:04.700Z,61.21
2022-08-05T22:54:36.528Z,61.45
2022-08-05T22:57:05.540Z,61.68
2022-08-05T22:59:44.292Z,61.36
2022-08-05T23:02:17.895Z,61.15
2022-08-05T23:04:51.152Z,61.74
2022-08-05T23:07:21.964Z,61.96
2022-08-05T23:09:53.345Z,61.73
2022-08-05T23:12:32.490Z,61.75
2022-08-05T23:15:08.715Z,62.03
2022-08-05T23:18:01.572Z,61.86
2022-08-05T23:20:25.671Z,61.87
2022-08-05T23:22:56.011Z,62.25
2022-08-05T23:25:52.671Z,62.16
2022-08-05T23:28:12.697Z,61.97
2022-08-05T23:30:43.441Z,62.03
2022-08-05T23:33:22.604Z,61.94
2022-08-05T23:35:56.223Z,61.81
2022-08-05T23:38:26.751Z,61.88
2022-08-05T23:40:54.598Z,62.05
2022-08-05T23:43:24.826Z,61.97
2022-08-05T23:46:20.666Z,61.82
2022-08-05T23:49:00.512Z,61.67
2022-08-05T23:51:53.933Z,61.75
2022-08-05T23:54:30.480Z,61.68
2022-08-05T23:57:05.041Z,62.06
